Time,TemperatureF,DewpointF,PressureIn,WindDirection,WindDirectionDegrees,WindSpeedMPH,WindSpeedGustMPH,Humidity,HourlyPrecipIn,Conditions,Clouds,dailyrainin,SoftwareType,DateUTC
2013-01-28 00:00:00,19.3,-1.1,30.17,WNW,302,0.0,0.0,40,0.00,CLR,SCT,0.00,WeatherDisplay:10.37,2013-01-28 05:00:00,
2013-01-28 00:03:00,19.5,-0.9,30.17,WNW,302,0.4,1.1,40,0.00,CLR,SCT,0.00,WeatherDisplay:10.37,2013-01-28 05:03:00,
2013-01-28 00:08:00,19.8,-1.2,30.18,WNW,302,0.4,1.1,39,0.00,CLR,SCT,0.00,WeatherDisplay:10.37,2013-01-28 05:08:00,
2013-01-28 00:13:00,19.9,-1.1,30.18,WNW,302,0.0,0.0,39,0.00,CLR,SCT,0.00,WeatherDisplay:10.37,2013-01-28 05:13:00,
2013-01-28 00:18:00,19.8,-1.2,30.18,WNW,302,0.5,1.1,39,0.00,CLR,SCT,0.00,WeatherDisplay:10.37,2013-01-28 05:18:00,
2013-01-28 00:23:00,19.2,0.8,30.18,WNW,302,0.4,1.1,44,0.00,CLR,SCT,0.00,WeatherDisplay:10.37,2013-01-28 05:23:00,
2013-01-28 00:28:00,18.6,-0.2,30.17,WNW,302,0.0,0.0,43,0.00,CLR,SCT,0.00,WeatherDisplay:10.37,2013-01-28 05:28:00,
2013-01-28 00:33:00,18.4,-0.9,30.17,WNW,302,0.0,0.0,42,0.00,CLR,SCT,0.00,WeatherDisplay:10.37,2013-01-28 05:33:00,
2013-01-28 00:38:00,18.5,-0.8,30.18,WNW,302,0.0,0.0,42,0.00,CLR,SCT,0.00,WeatherDisplay:10.37,2013-01-28 05:38:00,
2013-01-28 00:43:00,18.6,-0.7,30.18,WNW,302,0.0,0.0,42,0.00,CLR,SCT,0.00,WeatherDisplay:10.37,2013-01-28 05:43:00,
2013-01-28 00:48:00,18.9,-1.0,30.18,WNW,302,0.0,1.0,41,0.00,CLR,SCT,0.00,WeatherDisplay:10.37,2013-01-28 05:48:00,
2013-01-28 00:53:00,18.9,-0.5,30.18,WNW,302,0.2,1.1,42,0.00,CLR,SCT,0.00,WeatherDisplay:10.37,2013-01-28 05:53:00,
2013-01-28 00:58:00,18.7,-0.1,30.17,WNW,302,0.8,1.1,43,0.00,CLR,SCT,0.00,WeatherDisplay:10.37,2013-01-28 05:58:00,
2013-01-28 01:03:00,18.4,0.1,30.17,WNW,302,0.0,0.0,44,0.00,CLR,SCT,0.00,WeatherDisplay:10.37,2013-01-28 06:03:00,
2013-01-28 01:08:00,18.4,-0.4,30.17,WNW,302,0.0,0.0,43,0.00,CLR,SCT,0.00,WeatherDisplay:10.37,2013-01-28 06:08:00,
2013-01-28 01:13:00,18.4,-0.4,30.17,WNW,302,0.0,0.0,43,0.00,CLR,SCT,0.00,WeatherDisplay:10.37,2013-01-28 06:13:00,
2013-01-28 01:18:00,18.5,-0.3,30.17,WNW,302,0.0,0.0,43,0.00,CLR,SCT,0.00,WeatherDisplay:10.37,2013-01-28 06:18:00,
2013-01-28 01:23:00,18.5,-0.3,30.17,WNW,302,0.0,0.0,43,0.00,CLR,SCT,0.00,WeatherDisplay:10.37,2013-01-28 06:23:00,
2013-01-28 01:28:00,18.4,1.0,30.17,WNW,302,0.0,0.0,46,0.00,CLR,SCT,0.00,WeatherDisplay:10.37,2013-01-28 06:28:00,
2013-01-28 01:33:00,18.5,0.2,30.16,WNW,302,0.0,0.0,44,0.00,CLR,SCT,0.00,WeatherDisplay:10.37,2013-01-28 06:33:00,
2013-01-28 01:38:00,18.5,-0.3,30.16,WNW,302,0.0,0.0,43,0.00,CLR,SCT,0.00,WeatherDisplay:10.37,2013-01-28 06:38:00,
2013-01-28 01:43:00,18.6,0.3,30.16,WNW,302,0.0,0.0,44,0.00,CLR,SCT,0.00,WeatherDisplay:10.37,2013-01-28 06:43:00,
2013-01-28 01:48:00,18.6,-0.2,30.16,WNW,302,0.0,0.0,43,0.00,CLR,SCT,0.00,WeatherDisplay:10.37,2013-01-28 06:48:00,
2013-01-28 01:53:00,18.5,0.2,30.16,WNW,302,0.0,0.0,44,0.00,CLR,SCT,0.00,WeatherDisplay:10.37,2013-01-28 06:53:00,
2013-01-28 01:58:00,18.5,0.2,30.16,WNW,302,0.0,0.0,44,0.00,CLR,SCT,0.00,WeatherDisplay:10.37,2013-01-28 06:58:00,
2013-01-28 02:03:00,18.6,1.2,30.16,WNW,302,0.0,0.0,46,0.00,CLR,SCT,0.00,WeatherDisplay:10.37,2013-01-28 07:03:00,
2013-01-28 02:08:00,18.6,0.3,30.16,WNW,302,0.0,0.0,44,0.00,CLR,SCT,0.00,WeatherDisplay:10.37,2013-01-28 07:08:00,
2013-01-28 02:13:00,18.6,0.7,30.16,WNW,302,0.0,0.0,45,0.00,CLR,SCT,0.00,WeatherDisplay:10.37,2013-01-28 07:13:00,
2013-01-28 02:18:00,18.6,1.7,30.16,WNW,302,0.0,0.0,47,0.00,CLR,SCT,0.00,WeatherDisplay:10.37,2013-01-28 07:18:00,
2013-01-28 02:23:00,18.6,1.2,30.16,WNW,302,0.0,0.0,46,0.00,CLR,SCT,0.00,WeatherDisplay:10.37,2013-01-28 07:23:00,
2013-01-28 02:28:00,18.7,1.8,30.16,WNW,302,0.1,1.0,47,0.00,CLR,SCT,0.00,WeatherDisplay:10.37,2013-01-28 07:28:00,
2013-01-28 02:33:00,18.6,1.2,30.15,WNW,302,0.6,1.1,46,0.00,CLR,SCT,0.00,WeatherDisplay:10.37,2013-01-28 07:33:00,
2013-01-28 02:38:00,18.6,2.1,30.15,WNW,302,0.1,1.0,48,0.00,CLR,SCT,0.00,WeatherDisplay:10.37,2013-01-28 07:38:00,
2013-01-28 02:43:00,18.7,3.1,30.14,WNW,302,0.0,0.0,50,0.00,CLR,SCT,0.00,WeatherDisplay:10.37,2013-01-28 07:43:00,
2013-01-28 02:48:00,18.7,0.4,30.14,WNW,302,0.0,0.0,44,0.00,CLR,SCT,0.00,WeatherDisplay:10.37,2013-01-28 07:48:00,
2013-01-28 02:53:00,18.9,-0.5,30.14,WNW,302,0.0,0.0,42,0.00,CLR,SCT,0.00,WeatherDisplay:10.37,2013-01-28 07:53:00,
2013-01-28 02:58:00,19.0,-0.4,30.14,WNW,302,0.0,0.0,42,0.00,CLR,SCT,0.00,WeatherDisplay:10.37,2013-01-28 07:58:00,
2013-01-28 03:03:00,19.2,-0.2,30.14,WNW,302,0.0,1.1,42,0.00,CLR,SCT,0.00,WeatherDisplay:10.37,2013-01-28 08:03:00,
2013-01-28 03:08:00,19.4,-0.5,30.13,WNW,302,0.0,0.0,41,0.00,CLR,SCT,0.00,WeatherDisplay:10.37,2013-01-28 08:08:00,
2013-01-28 03:13:00,19.5,-0.4,30.13,WNW,302,0.0,0.0,41,0.00,CLR,SCT,0.00,WeatherDisplay:10.37,2013-01-28 08:13:00,
2013-01-28 03:18:00,19.4,1.0,30.13,WNW,302,0.0,0.0,44,0.00,CLR,SCT,0.00,WeatherDisplay:10.37,2013-01-28 08:18:00,
2013-01-28 03:23:00,19.3,2.8,30.13,WNW,302,0.0,0.0,48,0.00,CLR,SCT,0.00,WeatherDisplay:10.37,2013-01-28 08:23:00,
2013-01-28 03:28:00,19.2,3.1,30.13,WNW,302,0.0,0.0,49,0.00,CLR,SCT,0.00,WeatherDisplay:10.37,2013-01-28 08:28:00,
2013-01-28 03:33:00,19.1,-0.3,30.13,WNW,302,0.0,0.0,42,0.00,CLR,SCT,0.00,WeatherDisplay:10.37,2013-01-28 08:33:00,
2013-01-28 03:38:00,19.1,0.2,30.13,WNW,302,0.0,0.0,43,0.00,CLR,SCT,0.00,WeatherDisplay:10.37,2013-01-28 08:38:00,
2013-01-28 03:43:00,19.2,-0.2,30.12,WNW,302,0.0,0.0,42,0.00,CLR,SCT,0.00,WeatherDisplay:10.37,2013-01-28 08:43:00,
2013-01-28 03:48:00,19.4,-0.5,30.12,WNW,302,0.0,0.0,41,0.00,CLR,SCT,0.00,WeatherDisplay:10.37,2013-01-28 08:48:00,
2013-01-28 03:53:00,19.5,-0.9,30.13,WNW,302,0.0,0.0,40,0.00,CLR,SCT,0.00,WeatherDisplay:10.37,2013-01-28 08:53:00,
2013-01-28 03:58:00,19.6,-0.9,30.13,WNW,302,0.0,0.0,40,0.00,CLR,SCT,0.00,WeatherDisplay:10.37,2013-01-28 08:58:00,
2013-01-28 04:03:00,19.8,0.4,30.13,WNW,302,0.1,1.1,42,0.00,CLR,SCT,0.00,WeatherDisplay:10.37,2013-01-28 09:03:00,
2013-01-28 04:08:00,19.9,0.5,30.13,WNW,302,0.0,0.0,42,0.00,CLR,SCT,0.00,WeatherDisplay:10.37,2013-01-28 09:08:00,
2013-01-28 04:13:00,19.9,-0.1,30.12,WNW,302,0.0,0.0,41,0.00,CLR,SCT,0.00,WeatherDisplay:10.37,2013-01-28 09:13:00,
2013-01-28 04:18:00,20.0,3.4,30.13,WNW,302,0.0,0.0,48,0.00,CLR,SCT,0.00,WeatherDisplay:10.37,2013-01-28 09:18:00,
2013-01-28 04:23:00,20.1,4.4,30.12,WNW,302,0.0,0.0,50,0.00,CLR,SCT,0.00,WeatherDisplay:10.37,2013-01-28 09:23:00,
2013-01-28 04:28:00,20.1,1.6,30.12,WNW,302,0.0,0.0,44,0.00,CLR,SCT,0.00,WeatherDisplay:10.37,2013-01-28 09:28:00,
2013-01-28 04:33:00,20.1,1.6,30.12,WNW,302,0.0,0.0,44,0.00,CLR,SCT,0.00,WeatherDisplay:10.37,2013-01-28 09:33:00,
2013-01-28 04:38:00,20.2,3.6,30.12,WNW,302,0.0,0.0,48,0.00,CLR,SCT,0.00,WeatherDisplay:10.37,2013-01-28 09:38:00,
2013-01-28 04:43:00,20.2,3.2,30.11,WNW,302,0.0,0.0,47,0.00,CLR,SCT,0.00,WeatherDisplay:10.37,2013-01-28 09:43:00,
2013-01-28 04:48:00,20.2,4.9,30.11,WNW,302,0.0,0.0,51,0.00,CLR,SCT,0.00,WeatherDisplay:10.37,2013-01-28 09:48:00,
2013-01-28 04:53:00,20.2,7.8,30.11,WNW,302,0.0,0.0,58,0.00,CLR,SCT,0.00,WeatherDisplay:10.37,2013-01-28 09:53:00,
2013-01-28 04:58:00,20.2,6.6,30.11,WNW,302,0.0,0.0,55,0.00,CLR,SCT,0.00,WeatherDisplay:10.37,2013-01-28 09:58:00,
2013-01-28 05:03:00,20.2,7.8,30.11,WNW,302,0.0,0.0,58,0.00,CLR,SCT,0.00,WeatherDisplay:10.37,2013-01-28 10:03:00,
2013-01-28 05:08:00,20.1,8.4,30.10,WNW,302,0.6,1.1,60,0.00,CLR,SCT,0.00,WeatherDisplay:10.37,2013-01-28 10:08:00,
2013-01-28 05:13:00,20.2,8.5,30.10,WNW,302,0.6,1.1,60,0.00,CLR,SCT,0.00,WeatherDisplay:10.37,2013-01-28 10:13:00,
2013-01-28 05:18:00,20.1,8.1,30.10,WNW,302,0.0,0.0,59,0.00,CLR,SCT,0.00,WeatherDisplay:10.37,2013-01-28 10:18:00,
2013-01-28 05:23:00,20.1,7.3,30.11,WNW,302,0.0,0.0,57,0.00,CLR,SCT,0.00,WeatherDisplay:10.37,2013-01-28 10:23:00,
2013-01-28 05:28:00,20.1,7.3,30.11,WNW,302,0.0,0.0,57,0.00,CLR,SCT,0.00,WeatherDisplay:10.37,2013-01-28 10:28:00,
2013-01-28 05:33:00,20.1,6.9,30.11,WNW,302,0.0,0.0,56,0.00,CLR,SCT,0.00,WeatherDisplay:10.37,2013-01-28 10:33:00,
2013-01-28 05:38:00,20.2,8.5,30.10,WNW,302,0.0,0.0,60,0.00,CLR,SCT,0.00,WeatherDisplay:10.37,2013-01-28 10:38:00,
2013-01-28 05:43:00,20.3,9.3,30.10,WNW,302,0.6,1.1,62,0.00,CLR,SCT,0.00,WeatherDisplay:10.37,2013-01-28 10:43:00,
2013-01-28 05:48:00,20.3,8.6,30.10,WNW,302,0.1,1.0,60,0.00,CLR,SCT,0.00,WeatherDisplay:10.37,2013-01-28 10:48:00,
2013-01-28 05:53:00,20.2,7.8,30.09,WNW,302,0.9,1.1,58,0.00,CLR,SCT,0.00,WeatherDisplay:10.37,2013-01-28 10:53:00,
2013-01-28 05:58:00,20.2,7.0,30.09,WNW,302,0.0,0.0,56,0.00,CLR,SCT,0.00,WeatherDisplay:10.37,2013-01-28 10:58:00,
2013-01-28 06:03:00,20.2,7.0,30.10,WNW,302,0.0,0.0,56,0.00,CLR,SCT,0.00,WeatherDisplay:10.37,2013-01-28 11:03:00,
2013-01-28 06:08:00,20.2,10.3,30.11,WNW,302,0.8,1.1,65,0.00,CLR,SCT,0.00,WeatherDisplay:10.37,2013-01-28 11:08:00,
2013-01-28 06:13:00,19.9,11.7,30.11,WNW,302,0.6,1.1,70,0.00,CLR,SCT,0.00,WeatherDisplay:10.37,2013-01-28 11:13:00,
2013-01-28 06:18:00,19.5,7.5,30.11,WNW,303,0.5,1.1,59,0.00,CLR,SCT,0.00,WeatherDisplay:10.37,2013-01-28 11:18:00,
2013-01-28 06:23:00,19.4,7.0,30.10,WNW,303,0.0,0.0,58,0.00,CLR,SCT,0.00,WeatherDisplay:10.37,2013-01-28 11:23:00,
2013-01-28 06:28:00,19.3,7.7,30.10,WNW,303,0.0,0.0,60,0.00,CLR,SCT,0.00,WeatherDisplay:10.37,2013-01-28 11:28:00,
2013-01-28 06:33:00,19.4,8.1,30.10,WNW,303,0.0,0.0,61,0.00,CLR,SCT,0.00,WeatherDisplay:10.37,2013-01-28 11:33:00,
2013-01-28 06:38:00,19.5,7.9,30.10,WNW,303,0.0,0.0,60,0.00,CLR,SCT,0.00,WeatherDisplay:10.37,2013-01-28 11:38:00,
2013-01-28 06:43:00,19.7,10.2,30.10,WNW,303,1.1,2.3,66,0.00,CLR,SCT,0.00,WeatherDisplay:10.37,2013-01-28 11:43:00,
2013-01-28 06:48:00,19.9,10.0,30.10,WNW,303,0.0,1.1,65,0.00,CLR,SCT,0.00,WeatherDisplay:10.37,2013-01-28 11:48:00,
2013-01-28 06:53:00,20.2,9.2,30.09,WNW,303,0.8,1.1,62,0.00,CLR,SCT,0.00,WeatherDisplay:10.37,2013-01-28 11:53:00,
2013-01-28 06:58:00,20.3,9.0,30.09,WNW,303,0.6,2.3,61,0.00,CLR,SCT,0.00,WeatherDisplay:10.37,2013-01-28 11:58:00,
2013-01-28 07:03:00,20.5,7.7,30.09,WNW,303,0.1,1.1,57,0.00,CLR,SCT,0.00,WeatherDisplay:10.37,2013-01-28 12:03:00,
2013-01-28 07:08:00,20.6,6.2,30.09,NNE,22,0.1,1.1,53,0.00,CLR,SCT,0.00,WeatherDisplay:10.37,2013-01-28 12:08:00,
2013-01-28 07:13:00,20.8,6.7,30.09,NNE,23,1.5,2.3,54,0.00,CLR,SCT,0.00,WeatherDisplay:10.37,2013-01-28 12:13:00,
2013-01-28 07:18:00,21.0,5.2,30.09,NNE,23,0.9,2.3,50,0.00,CLR,SCT,0.00,WeatherDisplay:10.37,2013-01-28 12:18:00,
2013-01-28 07:23:00,21.1,5.8,30.09,NNE,23,0.3,1.1,51,0.00,CLR,SCT,0.00,WeatherDisplay:10.37,2013-01-28 12:23:00,
2013-01-28 07:28:00,21.1,6.6,30.09,NNE,23,0.0,0.0,53,0.00,CLR,SCT,0.00,WeatherDisplay:10.37,2013-01-28 12:28:00,
2013-01-28 07:33:00,21.2,6.3,30.09,NNE,23,0.0,0.0,52,0.00,CLR,SCT,0.00,WeatherDisplay:10.37,2013-01-28 12:33:00,
2013-01-28 07:38:00,21.2,9.1,30.09,NNE,23,0.0,0.0,59,0.00,CLR,SCT,0.00,WeatherDisplay:10.37,2013-01-28 12:38:00,
2013-01-28 07:43:00,21.3,11.0,30.10,NNE,23,0.0,0.0,64,0.00,CLR,SCT,0.00,WeatherDisplay:10.37,2013-01-28 12:43:00,
2013-01-28 07:48:00,21.1,11.2,30.09,NNE,23,0.7,1.1,65,0.00,CLR,SCT,0.00,WeatherDisplay:10.37,2013-01-28 12:48:00,
2013-01-28 07:53:00,21.2,7.1,30.09,NNE,23,1.0,2.3,54,0.00,CLR,SCT,0.00,WeatherDisplay:10.37,2013-01-28 12:53:00,
2013-01-28 07:58:00,21.2,5.9,30.09,NNE,23,0.6,1.1,51,0.00,CLR,SCT,0.00,WeatherDisplay:10.37,2013-01-28 12:58:00,
2013-01-28 08:03:00,21.2,6.3,30.09,NNE,23,0.6,1.1,52,0.00,CLR,SCT,0.00,WeatherDisplay:10.37,2013-01-28 13:03:00,
2013-01-28 08:08:00,21.3,6.8,30.08,NNE,23,0.0,1.1,53,0.00,CLR,SCT,0.00,WeatherDisplay:10.37,2013-01-28 13:08:00,
2013-01-28 08:13:00,21.5,7.8,30.09,NNE,23,0.0,0.0,55,0.00,CLR,SCT,0.00,WeatherDisplay:10.37,2013-01-28 13:13:00,
2013-01-28 08:18:00,21.7,8.4,30.08,NNE,23,0.4,1.1,56,0.00,CLR,SCT,0.00,WeatherDisplay:10.37,2013-01-28 13:18:00,
2013-01-28 08:23:00,21.9,8.2,30.08,NNE,23,0.1,1.1,55,0.00,CLR,SCT,0.00,WeatherDisplay:10.37,2013-01-28 13:23:00,
2013-01-28 08:28:00,22.1,7.6,30.08,NNE,23,0.1,1.0,53,0.00,CLR,SCT,0.00,WeatherDisplay:10.37,2013-01-28 13:28:00,
2013-01-28 08:33:00,22.4,7.8,30.08,NNE,23,0.1,1.1,53,0.00,CLR,SCT,0.00,WeatherDisplay:10.37,2013-01-28 13:33:00,
2013-01-28 08:38:00,22.7,8.1,30.08,NNE,23,1.1,2.3,53,0.00,CLR,SCT,0.00,WeatherDisplay:10.37,2013-01-28 13:38:00,
2013-01-28 08:43:00,23.0,7.5,30.08,NNE,23,0.0,0.0,51,0.00,CLR,SCT,0.00,WeatherDisplay:10.37,2013-01-28 13:43:00,
2013-01-28 08:48:00,23.2,10.2,30.08,NNE,23,0.8,1.1,57,0.00,CLR,SCT,0.00,WeatherDisplay:10.37,2013-01-28 13:48:00,
2013-01-28 08:53:00,22.9,11.4,30.07,NNE,23,0.3,1.1,61,0.00,CLR,SCT,0.00,WeatherDisplay:10.37,2013-01-28 13:53:00,
2013-01-28 08:58:00,22.7,11.6,30.08,NNE,23,0.0,1.1,62,0.00,CLR,SCT,0.00,WeatherDisplay:10.37,2013-01-28 13:58:00,
2013-01-28 09:03:00,22.4,11.3,30.09,NNE,22,0.8,2.3,62,0.00,CLR,SCT,0.00,WeatherDisplay:10.37,2013-01-28 14:03:00,
2013-01-28 09:08:00,22.0,11.0,30.09,NNE,22,0.1,1.1,62,0.00,CLR,SCT,0.00,WeatherDisplay:10.37,2013-01-28 14:08:00,
2013-01-28 09:13:00,21.7,11.4,30.08,NNE,22,0.0,0.0,64,0.00,CLR,SCT,0.00,WeatherDisplay:10.37,2013-01-28 14:13:00,
2013-01-28 09:18:00,21.5,11.9,30.08,NE,50,1.2,2.3,66,0.00,CLR,SCT,0.00,WeatherDisplay:10.37,2013-01-28 14:18:00,
2013-01-28 09:23:00,21.3,13.0,30.08,ENE,71,0.3,2.3,70,0.00,CLR,SCT,0.00,WeatherDisplay:10.37,2013-01-28 14:23:00,
2013-01-28 09:28:00,21.2,13.9,30.08,SSW,203,0.2,2.3,73,0.00,CLR,SCT,0.00,WeatherDisplay:10.37,2013-01-28 14:28:00,
2013-01-28 09:33:00,21.2,15.4,30.08,South,182,1.3,3.5,78,0.00,CLR,SCT,0.00,WeatherDisplay:10.37,2013-01-28 14:33:00,
2013-01-28 09:38:00,21.3,16.4,30.07,South,182,1.3,2.3,81,0.00,CLR,SCT,0.00,WeatherDisplay:10.37,2013-01-28 14:38:00,
2013-01-28 09:43:00,21.2,16.6,30.07,South,175,1.8,3.5,82,0.00,CLR,SCT,0.00,WeatherDisplay:10.37,2013-01-28 14:43:00,
2013-01-28 09:48:00,21.3,17.2,30.07,SE,140,1.2,3.5,84,0.00,CLR,SCT,0.00,WeatherDisplay:10.37,2013-01-28 14:48:00,
2013-01-28 09:53:00,21.4,17.9,30.06,SSE,150,1.8,3.5,86,0.00,CLR,SCT,0.00,WeatherDisplay:10.37,2013-01-28 14:53:00,
2013-01-28 09:58:00,21.6,18.3,30.06,SE,141,1.0,2.3,87,0.00,CLR,SCT,0.00,WeatherDisplay:10.37,2013-01-28 14:58:00,
2013-01-28 10:03:00,21.8,18.8,30.07,SE,141,0.7,2.3,88,0.00,CLR,SCT,0.00,WeatherDisplay:10.37,2013-01-28 15:03:00,
2013-01-28 10:08:00,22.1,19.4,30.06,SE,141,0.6,2.3,89,0.00,CLR,SCT,0.00,WeatherDisplay:10.37,2013-01-28 15:08:00,
2013-01-28 10:13:00,22.4,19.6,30.06,SSE,161,0.6,2.3,89,0.00,CLR,SCT,0.00,WeatherDisplay:10.37,2013-01-28 15:13:00,
2013-01-28 10:18:00,22.6,19.8,30.06,SSE,161,1.8,2.3,89,0.00,CLR,SCT,0.00,WeatherDisplay:10.37,2013-01-28 15:18:00,
2013-01-28 10:23:00,22.6,19.8,30.06,SSE,160,2.5,4.0,89,0.00,CLR,SCT,0.00,WeatherDisplay:10.37,2013-01-28 15:23:00,
2013-01-28 10:28:00,22.6,19.8,30.05,SSE,153,1.4,3.0,89,0.00,CLR,SCT,0.00,WeatherDisplay:10.37,2013-01-28 15:28:00,
2013-01-28 10:33:00,22.7,19.9,30.05,ESE,114,1.5,2.3,89,0.00,CLR,SCT,0.00,WeatherDisplay:10.37,2013-01-28 15:33:00,
2013-01-28 10:38:00,22.5,19.7,30.05,SE,126,0.0,0.0,89,0.00,CLR,SCT,0.00,WeatherDisplay:10.37,2013-01-28 15:38:00,
2013-01-28 10:43:00,22.4,19.6,30.04,ESE,123,1.4,3.0,89,0.00,CLR,SCT,0.00,WeatherDisplay:10.37,2013-01-28 15:43:00,
2013-01-28 10:48:00,22.4,19.6,30.03,ESE,103,1.7,2.3,89,0.00,CLR,SCT,0.00,WeatherDisplay:10.37,2013-01-28 15:48:00,
2013-01-28 10:53:00,22.3,19.6,30.02,SE,134,1.1,3.5,89,0.00,CLR,SCT,0.00,WeatherDisplay:10.37,2013-01-28 15:53:00,
2013-01-28 10:58:00,22.3,19.8,30.02,SE,138,1.4,3.5,90,0.00,CLR,SCT,0.00,WeatherDisplay:10.37,2013-01-28 15:58:00,
2013-01-28 11:03:00,22.4,19.9,30.02,SE,138,1.0,2.0,90,0.00,CLR,SCT,0.00,WeatherDisplay:10.37,2013-01-28 16:03:00,
2013-01-28 11:08:00,22.4,19.9,30.02,SSE,159,1.1,2.3,90,0.00,CLR,SCT,0.00,WeatherDisplay:10.37,2013-01-28 16:08:00,
2013-01-28 11:13:00,22.4,19.9,30.01,SE,140,0.9,3.5,90,0.00,CLR,SCT,0.00,WeatherDisplay:10.37,2013-01-28 16:13:00,
2013-01-28 11:18:00,22.7,20.2,30.01,SE,140,1.4,2.3,90,0.00,CLR,SCT,0.00,WeatherDisplay:10.37,2013-01-28 16:18:00,
2013-01-28 11:23:00,22.9,20.7,30.00,SE,139,3.3,4.6,91,0.00,CLR,SCT,0.00,WeatherDisplay:10.37,2013-01-28 16:23:00,
2013-01-28 11:28:00,23.2,21.0,29.99,SE,132,1.5,3.5,91,0.00,CLR,SCT,0.00,WeatherDisplay:10.37,2013-01-28 16:28:00,
2013-01-28 11:33:00,23.1,20.6,29.99,SE,136,2.3,4.6,90,0.00,CLR,SCT,0.00,WeatherDisplay:10.37,2013-01-28 16:33:00,
2013-01-28 11:38:00,23.2,21.0,29.99,SE,136,0.8,3.5,91,0.00,CLR,SCT,0.00,WeatherDisplay:10.37,2013-01-28 16:38:00,
2013-01-28 11:43:00,23.2,21.0,30.00,SE,141,2.9,4.0,91,0.00,CLR,SCT,0.00,WeatherDisplay:10.37,2013-01-28 16:43:00,
2013-01-28 11:48:00,23.3,21.1,29.99,SE,130,1.4,2.3,91,0.00,CLR,SCT,0.00,WeatherDisplay:10.37,2013-01-28 16:48:00,
2013-01-28 11:53:00,23.4,21.2,29.99,SE,126,0.8,3.5,91,0.00,CLR,SCT,0.00,WeatherDisplay:10.37,2013-01-28 16:53:00,
2013-01-28 11:58:00,23.6,21.4,29.98,SE,127,1.1,2.3,91,0.00,CLR,SCT,0.00,WeatherDisplay:10.37,2013-01-28 16:58:00,
2013-01-28 12:03:00,23.6,21.4,29.98,SE,128,0.7,3.5,91,0.00,CLR,SCT,0.00,WeatherDisplay:10.37,2013-01-28 17:03:00,
2013-01-28 12:08:00,23.7,21.5,29.97,SE,133,1.6,3.5,91,0.00,CLR,SCT,0.00,WeatherDisplay:10.37,2013-01-28 17:08:00,
2013-01-28 12:13:00,23.8,21.6,29.96,ESE,121,2.2,4.6,91,0.00,CLR,SCT,0.00,WeatherDisplay:10.37,2013-01-28 17:13:00,
2013-01-28 12:18:00,23.8,21.6,29.96,SE,142,2.3,3.5,91,0.00,CLR,SCT,0.00,WeatherDisplay:10.37,2013-01-28 17:18:00,
2013-01-28 12:23:00,23.8,21.8,29.95,SE,128,2.5,4.6,92,0.00,CLR,SCT,0.00,WeatherDisplay:10.37,2013-01-28 17:23:00,
2013-01-28 12:28:00,23.8,21.8,29.94,ESE,115,2.5,3.5,92,0.00,CLR,SCT,0.00,WeatherDisplay:10.37,2013-01-28 17:28:00,
2013-01-28 12:33:00,23.8,21.8,29.93,ESE,120,3.4,3.5,92,0.00,CLR,SCT,0.00,WeatherDisplay:10.37,2013-01-28 17:33:00,
2013-01-28 12:38:00,23.8,21.8,29.92,SE,130,2.5,3.5,92,0.00,CLR,SCT,0.00,WeatherDisplay:10.37,2013-01-28 17:38:00,
2013-01-28 12:43:00,23.7,21.7,29.92,SE,128,2.3,3.5,92,0.00,CLR,SCT,0.00,WeatherDisplay:10.37,2013-01-28 17:43:00,
2013-01-28 12:48:00,23.8,22.1,29.91,SE,134,3.7,4.6,93,0.00,CLR,SCT,0.00,WeatherDisplay:10.37,2013-01-28 17:48:00,
2013-01-28 12:53:00,23.9,22.2,29.91,SE,134,2.4,3.5,93,0.00,CLR,SCT,0.00,WeatherDisplay:10.37,2013-01-28 17:53:00,
2013-01-28 12:58:00,24.0,22.3,29.90,ESE,117,2.6,5.0,93,0.00,CLR,SCT,0.00,WeatherDisplay:10.37,2013-01-28 17:58:00,
2013-01-28 13:03:00,24.1,22.4,29.90,SE,136,2.8,3.5,93,0.00,CLR,SCT,0.00,WeatherDisplay:10.37,2013-01-28 18:03:00,
2013-01-28 13:08:00,24.2,22.5,29.89,ESE,118,2.5,3.5,93,0.00,CLR,SCT,0.00,WeatherDisplay:10.37,2013-01-28 18:08:00,
2013-01-28 13:13:00,24.3,22.6,29.89,SSE,154,1.1,3.5,93,0.00,CLR,SCT,0.00,WeatherDisplay:10.37,2013-01-28 18:13:00,
2013-01-28 13:18:00,24.4,22.7,29.90,SE,142,1.5,2.3,93,0.00,CLR,SCT,0.00,WeatherDisplay:10.37,2013-01-28 18:18:00,
2013-01-28 13:23:00,24.5,22.8,29.89,SSE,161,0.8,3.5,93,0.00,CLR,SCT,0.00,WeatherDisplay:10.37,2013-01-28 18:23:00,
2013-01-28 13:28:00,24.8,23.3,29.89,SSE,148,1.6,3.5,94,0.00,CLR,SCT,0.00,WeatherDisplay:10.37,2013-01-28 18:28:00,
2013-01-28 13:33:00,25.0,23.5,29.88,SSE,159,1.0,3.5,94,0.00,CLR,SCT,0.00,WeatherDisplay:10.37,2013-01-28 18:33:00,
2013-01-28 13:38:00,25.1,23.6,29.87,SE,134,2.9,5.0,94,0.00,CLR,SCT,0.00,WeatherDisplay:10.37,2013-01-28 18:38:00,
2013-01-28 13:43:00,25.2,23.7,29.86,SE,133,2.9,4.6,94,0.00,CLR,SCT,0.00,WeatherDisplay:10.37,2013-01-28 18:43:00,
2013-01-28 13:48:00,25.3,23.6,29.85,ESE,123,3.5,4.6,93,0.00,CLR,SCT,0.00,WeatherDisplay:10.37,2013-01-28 18:48:00,
2013-01-28 13:53:00,25.4,23.7,29.85,SE,129,1.5,4.6,93,0.00,CLR,SCT,0.00,WeatherDisplay:10.37,2013-01-28 18:53:00,
2013-01-28 13:58:00,25.5,24.0,29.85,ESE,123,2.8,5.8,94,0.00,CLR,SCT,0.00,WeatherDisplay:10.37,2013-01-28 18:58:00,
2013-01-28 14:03:00,25.5,23.8,29.84,SE,134,4.0,5.8,93,0.00,CLR,SCT,0.00,WeatherDisplay:10.37,2013-01-28 19:03:00,
2013-01-28 14:08:00,25.7,24.2,29.83,SE,128,3.3,4.6,94,0.00,CLR,SCT,0.00,WeatherDisplay:10.37,2013-01-28 19:08:00,
2013-01-28 14:13:00,25.8,24.3,29.83,ESE,112,4.5,5.8,94,0.00,CLR,SCT,0.00,WeatherDisplay:10.37,2013-01-28 19:13:00,
2013-01-28 14:18:00,26.0,24.5,29.82,SE,134,3.9,4.6,94,0.00,CLR,SCT,0.00,WeatherDisplay:10.37,2013-01-28 19:18:00,
2013-01-28 14:23:00,26.3,24.8,29.81,SE,130,3.2,5.0,94,0.00,CLR,SCT,0.00,WeatherDisplay:10.37,2013-01-28 19:23:00,
2013-01-28 14:28:00,26.5,25.3,29.81,SE,144,4.1,4.6,95,0.00,CLR,SCT,0.00,WeatherDisplay:10.37,2013-01-28 19:28:00,
2013-01-28 14:33:00,26.6,25.4,29.81,SSE,150,1.6,4.6,95,0.00,CLR,SCT,0.00,WeatherDisplay:10.37,2013-01-28 19:33:00,
2013-01-28 14:38:00,26.7,25.5,29.81,SE,133,3.9,4.6,95,0.00,CLR,SCT,0.00,WeatherDisplay:10.37,2013-01-28 19:38:00,
2013-01-28 14:43:00,26.7,25.5,29.81,South,169,1.9,3.5,95,0.00,CLR,SCT,0.00,WeatherDisplay:10.37,2013-01-28 19:43:00,
2013-01-28 14:48:00,26.9,25.7,29.82,South,169,0.5,1.1,95,0.00,CLR,SCT,0.00,WeatherDisplay:10.37,2013-01-28 19:48:00,
2013-01-28 14:53:00,27.1,25.9,29.82,SSW,202,0.6,2.3,95,0.00,CLR,SCT,0.00,WeatherDisplay:10.37,2013-01-28 19:53:00,
2013-01-28 14:58:00,27.3,26.1,29.81,SSW,195,0.2,2.3,95,0.00,CLR,SCT,0.00,WeatherDisplay:10.37,2013-01-28 19:58:00,
2013-01-28 15:03:00,27.6,26.6,29.81,SW,215,2.7,4.6,96,0.00,CLR,SCT,0.00,WeatherDisplay:10.37,2013-01-28 20:03:00,
2013-01-28 15:08:00,27.8,26.8,29.81,SE,144,1.3,4.6,96,0.00,CLR,SCT,0.00,WeatherDisplay:10.37,2013-01-28 20:08:00,
2013-01-28 15:13:00,27.9,26.9,29.80,SSE,158,1.0,2.3,96,0.00,CLR,SCT,0.00,WeatherDisplay:10.37,2013-01-28 20:13:00,
2013-01-28 15:18:00,28.1,27.1,29.80,South,181,1.0,3.5,96,0.00,CLR,SCT,0.00,WeatherDisplay:10.37,2013-01-28 20:18:00,
2013-01-28 15:23:00,28.2,27.2,29.81,SSW,196,0.9,2.3,96,0.00,CLR,SCT,0.00,WeatherDisplay:10.37,2013-01-28 20:23:00,
2013-01-28 15:28:00,28.5,27.5,29.80,SSE,154,2.7,4.0,96,0.00,CLR,SCT,0.00,WeatherDisplay:10.37,2013-01-28 20:28:00,
2013-01-28 15:33:00,28.7,27.7,29.79,SSE,153,1.6,4.0,96,0.00,CLR,SCT,0.00,WeatherDisplay:10.37,2013-01-28 20:33:00,
2013-01-28 15:38:00,28.9,27.9,29.79,SSE,155,1.6,3.0,96,0.00,CLR,SCT,0.00,WeatherDisplay:10.37,2013-01-28 20:38:00,
2013-01-28 15:43:00,29.1,28.1,29.80,SSE,167,1.4,3.5,96,0.00,CLR,SCT,0.00,WeatherDisplay:10.37,2013-01-28 20:43:00,
2013-01-28 15:48:00,29.2,28.2,29.80,SSE,166,2.3,3.5,96,0.00,CLR,SCT,0.00,WeatherDisplay:10.37,2013-01-28 20:48:00,
2013-01-28 15:53:00,29.2,28.2,29.80,SE,144,2.9,4.0,96,0.00,CLR,SCT,0.00,WeatherDisplay:10.37,2013-01-28 20:53:00,
2013-01-28 15:58:00,29.3,28.3,29.80,South,182,0.6,2.3,96,0.00,CLR,SCT,0.00,WeatherDisplay:10.37,2013-01-28 20:58:00,
2013-01-28 16:03:00,29.4,28.4,29.80,South,182,0.7,1.1,96,0.00,CLR,SCT,0.00,WeatherDisplay:10.37,2013-01-28 21:03:00,
2013-01-28 16:08:00,29.6,28.6,29.80,South,182,0.8,2.3,96,0.00,CLR,SCT,0.00,WeatherDisplay:10.37,2013-01-28 21:08:00,
2013-01-28 16:13:00,29.6,28.6,29.79,SW,221,0.7,2.3,96,0.00,CLR,SCT,0.00,WeatherDisplay:10.37,2013-01-28 21:13:00,
2013-01-28 16:18:00,29.7,28.7,29.79,SSW,198,0.6,2.3,96,0.00,CLR,SCT,0.00,WeatherDisplay:10.37,2013-01-28 21:18:00,
2013-01-28 16:23:00,29.7,28.7,29.78,SSE,162,1.3,2.3,96,0.00,CLR,SCT,0.00,WeatherDisplay:10.37,2013-01-28 21:23:00,
2013-01-28 16:28:00,29.7,28.7,29.78,SSE,148,1.2,3.5,96,0.00,CLR,SCT,0.00,WeatherDisplay:10.37,2013-01-28 21:28:00,
2013-01-28 16:33:00,29.7,28.7,29.78,SSE,148,0.5,1.0,96,0.00,CLR,SCT,0.00,WeatherDisplay:10.37,2013-01-28 21:33:00,
2013-01-28 16:38:00,29.7,28.7,29.78,SSE,165,0.7,2.3,96,0.00,CLR,SCT,0.00,WeatherDisplay:10.37,2013-01-28 21:38:00,
2013-01-28 16:43:00,29.7,28.7,29.78,SSE,165,0.7,1.1,96,0.00,CLR,SCT,0.00,WeatherDisplay:10.37,2013-01-28 21:43:00,
2013-01-28 16:48:00,29.6,28.6,29.77,South,171,0.9,2.3,96,0.00,CLR,SCT,0.00,WeatherDisplay:10.37,2013-01-28 21:48:00,
2013-01-28 16:53:00,29.7,28.7,29.78,SSW,209,0.1,1.1,96,0.00,CLR,SCT,0.00,WeatherDisplay:10.37,2013-01-28 21:53:00,
2013-01-28 16:58:00,29.6,28.6,29.77,SSE,153,0.9,2.3,96,0.00,CLR,SCT,0.00,WeatherDisplay:10.37,2013-01-28 21:58:00,
2013-01-28 17:03:00,29.7,28.7,29.77,SSE,153,0.4,2.0,96,0.00,CLR,SCT,0.00,WeatherDisplay:10.37,2013-01-28 22:03:00,
2013-01-28 17:08:00,29.7,28.7,29.78,South,169,1.3,2.3,96,0.00,CLR,SCT,0.00,WeatherDisplay:10.37,2013-01-28 22:08:00,
2013-01-28 17:13:00,29.7,28.7,29.77,South,173,0.5,2.0,96,0.00,CLR,SCT,0.00,WeatherDisplay:10.37,2013-01-28 22:13:00,
2013-01-28 17:18:00,29.7,28.7,29.76,South,191,0.9,2.3,96,0.00,CLR,SCT,0.00,WeatherDisplay:10.37,2013-01-28 22:18:00,
2013-01-28 17:23:00,29.7,28.7,29.77,South,191,0.3,1.1,96,0.00,CLR,SCT,0.00,WeatherDisplay:10.37,2013-01-28 22:23:00,
2013-01-28 17:28:00,29.7,28.7,29.76,South,184,1.3,2.3,96,0.00,CLR,SCT,0.00,WeatherDisplay:10.37,2013-01-28 22:28:00,
2013-01-28 17:33:00,29.7,28.7,29.76,South,175,0.2,1.1,96,0.00,CLR,SCT,0.00,WeatherDisplay:10.37,2013-01-28 22:33:00,
2013-01-28 17:38:00,29.8,28.8,29.76,SW,223,0.3,1.1,96,0.00,CLR,SCT,0.00,WeatherDisplay:10.37,2013-01-28 22:38:00,
2013-01-28 17:43:00,29.8,28.8,29.76,SSE,152,1.4,2.0,96,0.00,CLR,SCT,0.00,WeatherDisplay:10.37,2013-01-28 22:43:00,
2013-01-28 17:48:00,29.8,28.8,29.76,South,188,0.8,1.1,96,0.00,CLR,SCT,0.00,WeatherDisplay:10.37,2013-01-28 22:48:00,
2013-01-28 17:53:00,29.8,28.8,29.76,South,188,0.8,2.3,96,0.00,CLR,SCT,0.00,WeatherDisplay:10.37,2013-01-28 22:53:00,
2013-01-28 17:58:00,29.7,28.7,29.75,South,188,0.1,2.3,96,0.00,CLR,SCT,0.00,WeatherDisplay:10.37,2013-01-28 22:58:00,
2013-01-28 18:03:00,29.8,28.8,29.75,South,188,0.7,1.1,96,0.00,CLR,SCT,0.00,WeatherDisplay:10.37,2013-01-28 23:03:00,
2013-01-28 18:08:00,29.8,28.8,29.75,South,187,1.1,2.3,96,0.00,CLR,SCT,0.00,WeatherDisplay:10.37,2013-01-28 23:08:00,
2013-01-28 18:13:00,29.8,28.8,29.75,South,187,0.5,1.0,96,0.00,CLR,SCT,0.00,WeatherDisplay:10.37,2013-01-28 23:13:00,
2013-01-28 18:18:00,29.8,28.8,29.74,South,187,0.3,1.1,96,0.00,CLR,SCT,0.00,WeatherDisplay:10.37,2013-01-28 23:18:00,
2013-01-28 18:23:00,29.8,28.8,29.75,South,187,0.0,0.0,96,0.00,CLR,SCT,0.00,WeatherDisplay:10.37,2013-01-28 23:23:00,
2013-01-28 18:28:00,29.8,28.8,29.75,South,187,0.6,1.1,96,0.00,CLR,SCT,0.00,WeatherDisplay:10.37,2013-01-28 23:28:00,
2013-01-28 18:33:00,29.8,28.8,29.74,South,187,0.8,1.1,96,0.00,CLR,SCT,0.00,WeatherDisplay:10.37,2013-01-28 23:33:00,
2013-01-28 18:38:00,29.8,28.8,29.73,South,187,1.0,1.1,96,0.00,CLR,SCT,0.00,WeatherDisplay:10.37,2013-01-28 23:38:00,
2013-01-28 18:43:00,29.7,28.7,29.73,South,187,0.5,2.3,96,0.00,CLR,SCT,0.00,WeatherDisplay:10.37,2013-01-28 23:43:00,
2013-01-28 18:48:00,29.7,28.7,29.74,South,187,0.8,1.1,96,0.00,CLR,SCT,0.00,WeatherDisplay:10.37,2013-01-28 23:48:00,
2013-01-28 18:53:00,29.7,28.7,29.75,SSW,192,0.2,1.1,96,0.00,CLR,SCT,0.00,WeatherDisplay:10.37,2013-01-28 23:53:00,
2013-01-28 18:58:00,29.8,28.8,29.74,SSW,192,0.0,0.0,96,0.00,CLR,SCT,0.00,WeatherDisplay:10.37,2013-01-28 23:58:00,
2013-01-28 19:03:00,29.9,28.9,29.74,SSW,192,0.7,2.3,96,0.00,CLR,SCT,0.00,WeatherDisplay:10.37,2013-01-29 00:03:00,
2013-01-28 19:08:00,29.9,28.9,29.73,South,186,1.1,2.3,96,0.00,CLR,SCT,0.00,WeatherDisplay:10.37,2013-01-29 00:08:00,
2013-01-28 19:13:00,29.8,28.8,29.73,South,186,0.2,1.1,96,0.00,CLR,SCT,0.00,WeatherDisplay:10.37,2013-01-29 00:13:00,
2013-01-28 19:18:00,29.8,29.1,29.74,SSW,200,1.0,2.3,97,0.00,CLR,SCT,0.00,WeatherDisplay:10.37,2013-01-29 00:18:00,
2013-01-28 19:23:00,29.8,29.1,29.74,SW,219,0.7,2.3,97,0.00,CLR,SCT,0.00,WeatherDisplay:10.37,2013-01-29 00:23:00,
2013-01-28 19:28:00,29.8,29.1,29.73,SSW,197,0.9,2.3,97,0.00,CLR,SCT,0.00,WeatherDisplay:10.37,2013-01-29 00:28:00,
2013-01-28 19:33:00,29.8,29.1,29.73,SSW,199,1.1,1.1,97,0.00,CLR,SCT,0.00,WeatherDisplay:10.37,2013-01-29 00:33:00,
2013-01-28 19:38:00,29.7,29.0,29.74,SSW,194,1.0,1.1,97,0.00,CLR,SCT,0.00,WeatherDisplay:10.37,2013-01-29 00:38:00,
2013-01-28 19:43:00,29.8,29.1,29.74,SSW,194,0.1,1.1,97,0.00,CLR,SCT,0.00,WeatherDisplay:10.37,2013-01-29 00:43:00,
2013-01-28 19:48:00,29.7,29.0,29.74,SSW,194,0.9,2.3,97,0.00,CLR,SCT,0.00,WeatherDisplay:10.37,2013-01-29 00:48:00,
2013-01-28 19:53:00,29.7,29.0,29.73,SSW,194,1.0,2.3,97,0.00,CLR,SCT,0.00,WeatherDisplay:10.37,2013-01-29 00:53:00,
2013-01-28 19:58:00,29.7,29.0,29.72,SSW,194,0.4,1.1,97,0.00,CLR,SCT,0.00,WeatherDisplay:10.37,2013-01-29 00:58:00,
2013-01-28 20:03:00,29.7,29.0,29.72,SSW,194,0.9,1.1,97,0.00,CLR,SCT,0.00,WeatherDisplay:10.37,2013-01-29 01:03:00,
2013-01-28 20:08:00,29.7,29.0,29.72,SSW,194,0.7,1.1,97,0.00,CLR,SCT,0.00,WeatherDisplay:10.37,2013-01-29 01:08:00,
2013-01-28 20:13:00,29.7,29.0,29.72,SSW,194,0.2,1.1,97,0.00,CLR,SCT,0.00,WeatherDisplay:10.37,2013-01-29 01:13:00,
2013-01-28 20:18:00,29.7,29.0,29.72,SSW,194,0.0,1.1,97,0.00,CLR,SCT,0.00,WeatherDisplay:10.37,2013-01-29 01:18:00,
2013-01-28 20:23:00,29.8,29.1,29.72,SSW,194,1.0,2.3,97,0.00,CLR,SCT,0.00,WeatherDisplay:10.37,2013-01-29 01:23:00,
2013-01-28 20:28:00,29.8,29.1,29.72,SSW,194,0.7,1.1,97,0.00,CLR,SCT,0.00,WeatherDisplay:10.37,2013-01-29 01:28:00,
2013-01-28 20:33:00,29.9,29.2,29.72,SSW,194,0.1,1.1,97,0.00,CLR,SCT,0.00,WeatherDisplay:10.37,2013-01-29 01:33:00,
2013-01-28 20:38:00,29.9,29.2,29.72,SSW,194,0.9,2.3,97,0.00,CLR,SCT,0.00,WeatherDisplay:10.37,2013-01-29 01:38:00,
2013-01-28 20:43:00,29.9,29.2,29.71,SSW,195,0.2,0.0,97,0.00,CLR,SCT,0.00,WeatherDisplay:10.37,2013-01-29 01:43:00,
2013-01-28 20:48:00,29.8,29.1,29.70,SSW,195,0.2,1.0,97,0.00,CLR,SCT,0.00,WeatherDisplay:10.37,2013-01-29 01:48:00,
2013-01-28 20:53:00,29.8,29.1,29.70,SSW,194,0.1,1.1,97,0.00,CLR,SCT,0.00,WeatherDisplay:10.37,2013-01-29 01:53:00,
2013-01-28 20:58:00,29.8,29.1,29.70,SSW,194,0.2,1.1,97,0.00,CLR,SCT,0.00,WeatherDisplay:10.37,2013-01-29 01:58:00,
2013-01-28 21:03:00,29.8,29.1,29.70,SSW,194,0.0,1.1,97,0.00,CLR,SCT,0.00,WeatherDisplay:10.37,2013-01-29 02:03:00,
2013-01-28 21:08:00,29.8,29.1,29.70,SSW,194,0.0,0.0,97,0.00,CLR,SCT,0.00,WeatherDisplay:10.37,2013-01-29 02:08:00,
2013-01-28 21:13:00,29.8,29.1,29.69,SSW,194,0.1,1.1,97,0.00,CLR,SCT,0.00,WeatherDisplay:10.37,2013-01-29 02:13:00,
2013-01-28 21:18:00,29.8,29.1,29.69,SSW,195,0.0,0.0,97,0.00,CLR,SCT,0.00,WeatherDisplay:10.37,2013-01-29 02:18:00,
2013-01-28 21:23:00,29.8,29.1,29.69,SSW,195,0.6,1.1,97,0.00,CLR,SCT,0.00,WeatherDisplay:10.37,2013-01-29 02:23:00,
2013-01-28 21:28:00,29.8,29.1,29.70,SSW,194,0.3,1.1,97,0.00,CLR,SCT,0.00,WeatherDisplay:10.37,2013-01-29 02:28:00,
2013-01-28 21:33:00,29.8,29.1,29.69,SSW,196,0.0,0.0,97,0.00,CLR,SCT,0.00,WeatherDisplay:10.37,2013-01-29 02:33:00,
2013-01-28 21:38:00,29.8,29.1,29.69,SSW,196,0.3,2.3,97,0.00,CLR,SCT,0.00,WeatherDisplay:10.37,2013-01-29 02:38:00,
2013-01-28 21:43:00,29.8,29.1,29.69,SSW,195,0.5,2.0,97,0.00,CLR,SCT,0.00,WeatherDisplay:10.37,2013-01-29 02:43:00,
2013-01-28 21:48:00,29.8,29.1,29.69,SSW,195,0.0,0.0,97,0.00,CLR,SCT,0.00,WeatherDisplay:10.37,2013-01-29 02:48:00,
2013-01-28 21:53:00,29.8,29.1,29.69,SSW,196,0.5,2.0,97,0.00,CLR,SCT,0.00,WeatherDisplay:10.37,2013-01-29 02:53:00,
2013-01-28 21:58:00,29.9,29.2,29.69,SSW,196,0.0,0.0,97,0.00,CLR,SCT,0.00,WeatherDisplay:10.37,2013-01-29 02:58:00,
2013-01-28 22:03:00,29.9,29.2,29.69,SSW,196,0.1,1.1,97,0.00,CLR,SCT,0.00,WeatherDisplay:10.37,2013-01-29 03:03:00,
2013-01-28 22:08:00,29.9,29.2,29.69,SSW,196,0.2,1.1,97,0.00,CLR,SCT,0.00,WeatherDisplay:10.37,2013-01-29 03:08:00,
2013-01-28 22:13:00,29.9,29.2,29.69,SSW,196,1.1,2.3,97,0.00,CLR,SCT,0.00,WeatherDisplay:10.37,2013-01-29 03:13:00,
2013-01-28 22:18:00,30.0,29.3,29.68,SSW,196,0.1,1.1,97,0.00,CLR,SCT,0.00,WeatherDisplay:10.37,2013-01-29 03:18:00,
2013-01-28 22:23:00,30.1,29.4,29.69,SSW,196,0.8,2.3,97,0.00,CLR,SCT,0.00,WeatherDisplay:10.37,2013-01-29 03:23:00,
2013-01-28 22:28:00,30.1,29.4,29.68,South,191,0.0,1.1,97,0.00,CLR,SCT,0.00,WeatherDisplay:10.37,2013-01-29 03:28:00,
2013-01-28 22:33:00,30.1,29.4,29.68,South,191,0.1,2.3,97,0.00,CLR,SCT,0.00,WeatherDisplay:10.37,2013-01-29 03:33:00,
2013-01-28 22:38:00,30.2,29.5,29.68,South,191,0.0,1.1,97,0.00,CLR,SCT,0.00,WeatherDisplay:10.37,2013-01-29 03:38:00,
2013-01-28 22:43:00,30.2,29.5,29.69,SSW,202,1.1,1.1,97,0.00,CLR,SCT,0.00,WeatherDisplay:10.37,2013-01-29 03:43:00,
2013-01-28 22:48:00,30.2,29.5,29.69,SSW,202,0.1,1.1,97,0.00,CLR,SCT,0.00,WeatherDisplay:10.37,2013-01-29 03:48:00,
2013-01-28 22:53:00,30.3,29.6,29.69,SSW,202,0.2,1.1,97,0.00,CLR,SCT,0.00,WeatherDisplay:10.37,2013-01-29 03:53:00,
2013-01-28 22:58:00,30.3,29.6,29.69,SSW,202,0.5,1.1,97,0.00,CLR,SCT,0.00,WeatherDisplay:10.37,2013-01-29 03:58:00,
2013-01-28 23:03:00,30.3,29.6,29.68,West,274,0.6,1.1,97,0.00,CLR,SCT,0.00,WeatherDisplay:10.37,2013-01-29 04:03:00,
2013-01-28 23:08:00,30.3,29.6,29.68,West,274,0.6,1.1,97,0.00,CLR,SCT,0.00,WeatherDisplay:10.37,2013-01-29 04:08:00,
2013-01-28 23:13:00,30.4,29.7,29.68,West,274,0.0,1.1,97,0.00,CLR,SCT,0.00,WeatherDisplay:10.37,2013-01-29 04:13:00,
2013-01-28 23:18:00,30.4,29.7,29.68,West,274,0.2,1.0,97,0.00,CLR,SCT,0.00,WeatherDisplay:10.37,2013-01-29 04:18:00,
2013-01-28 23:23:00,30.5,29.8,29.68,West,274,0.7,1.1,97,0.00,CLR,SCT,0.00,WeatherDisplay:10.37,2013-01-29 04:23:00,
2013-01-28 23:28:00,30.5,29.8,29.68,West,274,0.0,0.0,97,0.00,CLR,SCT,0.00,WeatherDisplay:10.37,2013-01-29 04:28:00,
2013-01-28 23:33:00,30.5,29.8,29.68,West,266,0.0,1.1,97,0.00,CLR,SCT,0.00,WeatherDisplay:10.37,2013-01-29 04:33:00,
2013-01-28 23:38:00,30.6,29.9,29.68,West,265,0.3,1.1,97,0.00,CLR,SCT,0.00,WeatherDisplay:10.37,2013-01-29 04:38:00,
2013-01-28 23:43:00,30.5,29.8,29.68,West,265,0.3,1.1,97,0.00,CLR,SCT,0.00,WeatherDisplay:10.37,2013-01-29 04:43:00,
2013-01-28 23:48:00,30.6,29.9,29.68,West,265,0.6,1.1,97,0.00,CLR,SCT,0.00,WeatherDisplay:10.37,2013-01-29 04:48:00,
2013-01-28 23:53:00,30.5,29.8,29.68,West,265,0.7,1.1,97,0.00,CLR,SCT,0.00,WeatherDisplay:10.37,2013-01-29 04:53:00,
2013-01-28 23:58:00,30.4,29.7,29.68,West,265,0.9,1.1,97,0.00,CLR,SCT,0.00,WeatherDisplay:10.37,2013-01-29 04:58:00,